AKST,Max TemperatureF,Mean TemperatureF,Min TemperatureF,Max Dew PointF,MeanDew PointF,Min DewpointF,Max Humidity, Mean Humidity, Min Humidity, Max Sea Level PressureIn, Mean Sea Level PressureIn, Min Sea Level PressureIn, Max VisibilityMiles, Mean VisibilityMiles, Min VisibilityMiles, Max Wind SpeedMPH, Mean Wind SpeedMPH, Max Gust SpeedMPH,PrecipitationIn, CloudCover, Events, WindDirDegrees
2011-12-1,35,30,25,32,25,14,93,78,50,29.91,29.75,29.51,10,8,2,20,5,28,0.01,7,Rain-Snow,170
2011-12-2,37,30,24,33,29,19,93,87,69,30.26,30.03,29.86,10,8,2,10,2,16,0.07,6,Rain-Snow,224
2011-12-3,39,30,24,34,26,21,93,87,81,30.25,30.11,29.86,10,10,7,13,6,17,0.07,8,Rain-Snow,335
2011-12-4,53,44,34,34,28,20,81,55,41,29.90,29.74,29.54,10,9,4,22,13,39,0.08,6,Rain,170
2011-12-5,33,30,28,21,19,17,69,63,56,30.38,30.16,29.91,10,10,10,16,10,29,0.00,1,,173
2011-12-6,34,26,18,23,20,15,88,72,59,30.47,30.43,30.38,10,10,10,10,5,16,0.00,3,,173
2011-12-7,30,24,18,25,20,15,89,81,71,30.41,30.12,29.88,10,10,6,10,4,16,0.00,8,Rain-Snow,322
2011-12-8,28,28,27,27,25,24,93,88,85,29.88,29.81,29.77,10,9,4,5,2,,0.01,8,Snow,16
2011-12-9,34,30,24,30,28,20,96,89,82,30.08,29.93,29.80,10,8,1,9,2,,0.03,8,Snow,197
2011-12-10,39,26,16,23,19,12,100,88,53,30.12,29.94,29.59,10,6,0,20,2,32,0.00,6,Fog,352
2011-12-11,44,36,28,32,28,23,93,79,43,29.69,29.18,28.76,10,8,0,18,9,33,0.22,8,Rain-Snow,298
2011-12-12,34,30,25,32,29,18,96,87,75,29.73,29.30,28.89,10,6,1,10,5,18,0.26,7,Snow,179
2011-12-13,28,23,18,25,21,15,96,88,74,29.77,29.74,29.70,10,6,0,7,2,,0.00,8,Fog-Snow,17
2011-12-14,19,17,15,16,14,12,93,86,81,29.75,29.71,29.60,10,8,1,7,4,,0.00,7,Snow,9
2011-12-15,39,28,16,26,18,12,89,81,50,29.59,29.33,29.19,10,10,10,10,3,18,0.00,6,,79
2011-12-16,39,32,26,28,25,21,89,80,51,29.47,29.44,29.42,10,10,10,9,4,16,0.00,6,,290
2011-12-17,39,30,24,26,24,21,88,77,55,29.53,29.48,29.39,10,10,10,9,4,16,0.00,5,,318
2011-12-18,42,38,33,31,27,23,79,66,53,29.35,29.03,28.81,10,10,8,23,11,40,0.02,7,Rain,186
2011-12-19,37,32,28,27,22,17,96,69,50,29.61,29.49,29.29,10,8,0,17,8,32,0.07,6,Snow,160
2011-12-20,42,36,30,32,27,19,96,75,45,29.78,29.58,29.35,10,7,1,26,7,39,0.15,7,Rain-Snow,172
2011-12-21,37,28,19,32,20,12,89,66,44,29.68,29.58,29.38,10,9,2,23,8,37,0.04,3,Rain-Snow,174
2011-12-22,24,20,16,22,18,13,93,86,75,29.57,29.15,28.99,10,4,0,10,4,,0.24,6,Fog-Snow,160
2011-12-23,23,19,12,19,16,9,89,83,74,29.57,29.39,29.09,10,7,1,8,4,,0.04,7,Snow,25
2011-12-24,15,12,9,12,9,6,92,89,84,29.60,29.48,29.25,10,5,0,9,5,,0.04,8,Fog-Snow,360
2011-12-25,18,9,-8,14,9,-9,95,85,77,29.55,29.35,29.16,10,6,1,8,2,,0.07,7,Snow,177
2011-12-26,19,10,0,11,6,-3,92,83,71,29.53,29.18,28.91,10,10,9,10,4,,0.00,5,Snow,85
2011-12-27,19,16,12,15,12,10,92,83,78,29.26,29.12,28.92,10,4,1,8,2,,0.04,8,Snow,192
2011-12-28,14,12,9,10,7,-1,92,80,56,29.19,29.12,29.08,10,7,2,6,1,,0.00,8,Snow,38
2011-12-29,12,9,5,5,2,-1,84,76,61,29.40,29.33,29.17,10,9,4,7,3,,0.00,8,Snow,11
2011-12-30,8,2,-4,4,1,-6,96,83,79,29.65,29.44,29.31,10,4,1,6,3,,0.02,8,Snow,39
2011-12-31,3,2,1,0,-1,-2,87,84,80,29.96,29.87,29.68,10,6,2,5,3,,0.00,8,Snow,6